createdAt,value
2018-07-15T00:03:11.858Z,19.70
2018-07-15T00:09:15.517Z,19.60
2018-07-15T00:15:18.807Z,19.50
2018-07-15T00:21:22.345Z,19.40
2018-07-15T00:27:25.853Z,19.40
2018-07-15T00:33:29.238Z,19.40
2018-07-15T00:39:33.225Z,19.30
2018-07-15T00:45:36.533Z,19.20
2018-07-15T00:51:40.020Z,19.20
2018-07-15T00:57:43.497Z,19.10
2018-07-15T01:03:47.019Z,19.10
2018-07-15T01:09:50.440Z,19.00
2018-07-15T01:15:54.730Z,18.90
2018-07-15T01:21:58.112Z,18.90
2018-07-15T01:28:01.605Z,18.80
2018-07-15T01:34:05.248Z,18.80
2018-07-15T01:40:08.664Z,18.70
2018-07-15T01:46:11.968Z,18.60
2018-07-15T01:52:15.549Z,18.50
2018-07-15T01:58:19.039Z,18.30
2018-07-15T02:04:22.565Z,18.20
2018-07-15T02:10:25.866Z,18.10
2018-07-15T02:16:29.203Z,18.10
2018-07-15T02:22:32.511Z,18.00
2018-07-15T02:28:36.185Z,18.00
2018-07-15T02:34:39.718Z,17.90
2018-07-15T02:40:42.999Z,17.90
2018-07-15T02:46:46.244Z,17.80
2018-07-15T02:52:49.944Z,17.60
2018-07-15T02:58:53.161Z,17.60
2018-07-15T03:04:56.462Z,17.60
2018-07-15T03:10:59.718Z,17.60
2018-07-15T03:17:03.027Z,17.60
2018-07-15T03:23:06.846Z,17.60
2018-07-15T03:29:10.325Z,17.50
2018-07-15T03:35:14.818Z,17.30
2018-07-15T03:41:18.118Z,17.30
2018-07-15T03:47:21.512Z,17.20
2018-07-15T03:53:24.950Z,17.10
2018-07-15T03:59:28.290Z,16.90
2018-07-15T04:05:31.613Z,16.80
2018-07-15T04:11:35.555Z,16.70
2018-07-15T04:17:38.821Z,16.70
2018-07-15T04:23:42.192Z,16.80
2018-07-15T04:29:45.557Z,16.90
2018-07-15T04:35:49.055Z,17.00
2018-07-15T04:41:52.373Z,17.00
2018-07-15T04:47:55.773Z,17.10
2018-07-15T04:53:59.091Z,17.20
2018-07-15T05:00:02.409Z,17.40
2018-07-15T05:06:05.917Z,17.50
2018-07-15T05:12:09.248Z,17.70
2018-07-15T05:18:12.572Z,17.80
2018-07-15T05:24:16.450Z,18.00
2018-07-15T05:30:19.940Z,18.10
2018-07-15T05:36:30.100Z,18.20
2018-07-15T05:42:33.522Z,18.40
2018-07-15T05:48:37.183Z,18.60
2018-07-15T05:54:40.944Z,18.80
2018-07-15T06:00:44.431Z,19.00
2018-07-15T06:06:47.803Z,19.10
2018-07-15T06:12:51.475Z,19.30
2018-07-15T06:18:54.979Z,19.40
2018-07-15T06:24:58.396Z,19.60
2018-07-15T06:31:01.957Z,19.80
2018-07-15T06:37:06.061Z,19.90
2018-07-15T06:43:09.386Z,20.10
2018-07-15T06:49:13.042Z,20.30
2018-07-15T06:55:16.589Z,20.50
2018-07-15T07:01:20.343Z,20.60
2018-07-15T07:07:23.831Z,20.80
2018-07-15T07:13:27.084Z,21.00
2018-07-15T07:19:30.635Z,21.10
2018-07-15T07:25:34.099Z,21.20
2018-07-15T07:31:37.469Z,21.30
2018-07-15T07:37:42.185Z,21.40
2018-07-15T07:43:45.787Z,21.70
2018-07-15T07:49:50.226Z,21.90
2018-07-15T07:55:53.619Z,22.00
2018-07-15T08:01:57.164Z,22.10
2018-07-15T08:08:00.463Z,22.30
2018-07-15T08:14:03.880Z,22.40
2018-07-15T08:20:07.088Z,22.40
2018-07-15T08:26:10.446Z,22.50
2018-07-15T08:32:13.758Z,22.60
2018-07-15T08:38:17.386Z,22.60
2018-07-15T08:44:21.102Z,22.80
2018-07-15T08:50:24.409Z,23.00
2018-07-15T08:56:28.032Z,23.10
2018-07-15T09:02:31.763Z,23.20
2018-07-15T09:08:35.220Z,23.20
2018-07-15T09:14:38.709Z,23.30
2018-07-15T09:20:42.239Z,23.40
2018-07-15T09:26:48.135Z,23.40
2018-07-15T09:32:53.422Z,23.50
2018-07-15T09:38:57.010Z,23.60
2018-07-15T09:45:01.101Z,23.70
2018-07-15T09:51:04.963Z,23.90
2018-07-15T09:57:08.390Z,24.00
2018-07-15T10:03:11.867Z,24.10
2018-07-15T10:09:15.135Z,24.10
2018-07-15T10:15:18.804Z,24.30
2018-07-15T10:21:28.821Z,24.40
2018-07-15T10:27:32.320Z,24.50
2018-07-15T10:33:36.270Z,24.60
2018-07-15T10:39:40.243Z,24.90
2018-07-15T10:45:44.069Z,25.20
2018-07-15T10:51:47.639Z,25.30
2018-07-15T10:57:51.223Z,25.30
2018-07-15T11:03:54.644Z,25.50
2018-07-15T11:09:58.059Z,25.60
2018-07-15T11:16:01.409Z,25.70
2018-07-15T11:22:04.912Z,25.80
2018-07-15T11:28:08.810Z,25.90
2018-07-15T11:34:12.236Z,26.10
2018-07-15T11:40:15.830Z,26.20
2018-07-15T11:46:19.294Z,26.40
2018-07-15T11:52:22.729Z,26.60
2018-07-15T11:58:26.049Z,26.90
2018-07-15T12:04:29.595Z,27.00
2018-07-15T12:10:33.009Z,27.30
2018-07-15T12:16:36.365Z,27.30
2018-07-15T12:22:39.831Z,27.50
2018-07-15T12:28:43.353Z,27.60
2018-07-15T12:34:46.774Z,27.70
2018-07-15T12:40:50.742Z,27.90
2018-07-15T12:46:56.850Z,28.00
2018-07-15T12:53:03.221Z,28.10
2018-07-15T12:59:06.822Z,28.10
2018-07-15T13:05:10.174Z,28.40
2018-07-15T13:11:13.868Z,28.50
2018-07-15T13:17:17.246Z,28.50
2018-07-15T13:23:20.621Z,28.60
2018-07-15T13:29:24.252Z,28.70
2018-07-15T13:35:27.902Z,28.80
2018-07-15T13:41:31.508Z,28.90
2018-07-15T13:47:34.840Z,28.80
2018-07-15T13:53:38.326Z,28.90
2018-07-15T13:59:48.458Z,29.10
2018-07-15T14:05:52.470Z,29.20
2018-07-15T14:11:57.254Z,29.40
2018-07-15T14:18:00.939Z,29.60
2018-07-15T14:24:04.351Z,29.80
2018-07-15T14:30:07.902Z,30.00
2018-07-15T14:36:11.309Z,30.40
2018-07-15T14:42:15.914Z,30.70
2018-07-15T14:48:19.431Z,30.90
2018-07-15T14:54:23.602Z,31.30
2018-07-15T15:00:26.865Z,31.60
2018-07-15T15:06:30.354Z,31.80
2018-07-15T15:12:35.240Z,31.90
2018-07-15T15:18:38.810Z,32.10
2018-07-15T15:24:42.200Z,32.20
2018-07-15T15:30:46.093Z,32.40
2018-07-15T15:36:49.502Z,32.60
2018-07-15T15:42:52.995Z,32.60
2018-07-15T15:48:57.214Z,32.50
2018-07-15T15:55:00.990Z,32.40
2018-07-15T16:01:04.710Z,32.60
2018-07-15T16:07:08.147Z,32.70
2018-07-15T16:13:11.632Z,32.70
2018-07-15T16:19:15.513Z,32.60
2018-07-15T16:25:19.235Z,32.70
2018-07-15T16:31:24.635Z,32.60
2018-07-15T16:37:28.394Z,32.70
2018-07-15T16:43:32.259Z,32.80
2018-07-15T16:49:35.993Z,32.70
2018-07-15T16:55:39.855Z,32.80
2018-07-15T17:01:43.680Z,32.70
2018-07-15T17:07:47.026Z,32.30
2018-07-15T17:13:50.526Z,31.90
2018-07-15T17:19:54.046Z,31.30
2018-07-15T17:25:57.867Z,30.50
2018-07-15T17:32:01.337Z,30.10
2018-07-15T17:38:04.883Z,29.60
2018-07-15T17:44:08.216Z,29.30
2018-07-15T17:50:11.885Z,29.10
2018-07-15T17:56:16.859Z,28.90
2018-07-15T18:02:20.484Z,28.70
2018-07-15T18:08:24.284Z,28.50
2018-07-15T18:14:28.704Z,28.30
2018-07-15T18:20:32.090Z,28.20
2018-07-15T18:26:35.664Z,28.00
2018-07-15T18:32:39.643Z,27.80
2018-07-15T18:38:43.890Z,27.60
2018-07-15T18:44:48.289Z,27.50
2018-07-15T18:50:56.316Z,27.40
2018-07-15T18:57:01.029Z,27.20
2018-07-15T19:03:05.568Z,27.00
2018-07-15T19:09:09.440Z,26.90
2018-07-15T19:15:13.695Z,26.60
2018-07-15T19:21:18.761Z,26.50
2018-07-15T19:27:22.902Z,26.30
2018-07-15T19:33:27.319Z,26.00
2018-07-15T19:39:30.986Z,25.80
2018-07-15T19:45:35.356Z,25.60
2018-07-15T19:51:39.269Z,25.40
2018-07-15T19:57:43.121Z,25.20
2018-07-15T20:03:46.750Z,25.00
2018-07-15T20:09:50.842Z,24.80
2018-07-15T20:15:54.598Z,24.60
2018-07-15T20:21:58.252Z,24.40
2018-07-15T20:28:01.723Z,24.20
2018-07-15T20:34:05.390Z,24.10
2018-07-15T20:40:08.679Z,24.00
2018-07-15T20:46:12.068Z,23.80
2018-07-15T20:52:16.529Z,23.50
2018-07-15T20:58:20.241Z,23.40
2018-07-15T21:04:23.770Z,23.30
2018-07-15T21:10:27.261Z,23.00
2018-07-15T21:16:30.797Z,22.80
2018-07-15T21:22:34.663Z,22.70
2018-07-15T21:28:38.190Z,22.40
2018-07-15T21:34:41.649Z,22.30
2018-07-15T21:40:45.332Z,22.20
2018-07-15T21:46:49.044Z,22.00
2018-07-15T21:52:52.662Z,22.00
2018-07-15T21:58:56.638Z,21.90
2018-07-15T22:04:59.990Z,21.90
2018-07-15T22:11:03.958Z,21.70
2018-07-15T22:17:07.558Z,21.50
2018-07-15T22:23:11.048Z,21.30
2018-07-15T22:29:14.860Z,21.00
2018-07-15T22:35:18.282Z,20.80
2018-07-15T22:41:21.955Z,20.80
2018-07-15T22:47:25.851Z,20.80
2018-07-15T22:53:30.690Z,20.70
2018-07-15T22:59:34.193Z,20.50
2018-07-15T23:05:55.439Z,20.30
2018-07-15T23:11:58.976Z,20.30
2018-07-15T23:18:03.060Z,20.20
2018-07-15T23:24:07.021Z,20.20
2018-07-15T23:30:11.677Z,19.90
2018-07-15T23:36:15.301Z,19.60
2018-07-15T23:42:18.648Z,19.60
2018-07-15T23:48:22.643Z,19.40
2018-07-15T23:54:25.996Z,19.40
